createdAt,value
2019-01-10T00:01:05.424Z,86.40
2019-01-10T00:03:34.906Z,86.20
2019-01-10T00:06:04.662Z,86.20
2019-01-10T00:08:34.042Z,86.40
2019-01-10T00:11:04.785Z,86.50
2019-01-10T00:13:35.422Z,86.60
2019-01-10T00:16:06.083Z,86.50
2019-01-10T00:18:35.842Z,86.10
2019-01-10T00:21:05.614Z,86.20
2019-01-10T00:23:34.882Z,86.30
2019-01-10T00:26:05.644Z,86.40
2019-01-10T00:28:35.132Z,86.40
2019-01-10T00:31:04.628Z,86.20
2019-01-10T00:33:33.956Z,86.20
2019-01-10T00:36:03.324Z,86.00
2019-01-10T00:38:32.762Z,86.10
2019-01-10T00:41:03.301Z,86.00
2019-01-10T00:43:32.552Z,85.70
2019-01-10T00:46:01.844Z,85.70
2019-01-10T00:48:31.406Z,85.70
2019-01-10T00:51:01.642Z,85.90
2019-01-10T00:53:31.110Z,86.20
2019-01-10T00:56:00.514Z,86.30
2019-01-10T00:58:29.804Z,86.20
2019-01-10T01:00:59.104Z,86.20
2019-01-10T01:03:28.472Z,86.00
2019-01-10T01:09:43.034Z,85.90
2019-01-10T01:12:12.388Z,86.00
2019-01-10T01:14:41.788Z,86.00
2019-01-10T01:17:11.088Z,86.00
2019-01-10T01:19:40.358Z,86.10
2019-01-10T01:22:09.770Z,86.00
2019-01-10T01:24:39.116Z,85.90
2019-01-10T01:27:08.412Z,85.70
2019-01-10T01:29:37.682Z,85.80
2019-01-10T01:32:07.107Z,85.90
2019-01-10T01:34:36.486Z,85.70
2019-01-10T01:37:06.162Z,85.70
2019-01-10T01:39:35.930Z,85.70
2019-01-10T01:42:05.650Z,86.30
2019-01-10T01:44:35.174Z,85.70
2019-01-10T01:47:04.538Z,85.60
2019-01-10T01:49:33.934Z,85.70
2019-01-10T01:52:03.452Z,85.70
2019-01-10T01:54:32.906Z,85.60
2019-01-10T01:57:02.310Z,85.50
2019-01-10T01:59:31.729Z,85.30
2019-01-10T02:02:01.032Z,85.50
2019-01-10T02:04:30.417Z,85.40
2019-01-10T02:07:00.352Z,85.30
2019-01-10T02:09:29.676Z,85.40
2019-01-10T02:11:59.023Z,85.70
2019-01-10T02:14:28.555Z,85.70
2019-01-10T02:16:57.922Z,85.80
2019-01-10T02:19:27.204Z,85.80
2019-01-10T02:21:56.474Z,85.80
2019-01-10T02:24:27.898Z,85.80
2019-01-10T02:26:58.502Z,86.10
2019-01-10T02:29:28.038Z,86.10
2019-01-10T02:31:57.431Z,87.10
2019-01-10T02:34:26.754Z,86.30
2019-01-10T02:37:00.169Z,86.40
2019-01-10T02:39:29.695Z,86.10
2019-01-10T02:41:58.961Z,86.70
2019-01-10T02:44:28.275Z,85.90
2019-01-10T02:46:57.679Z,86.00
2019-01-10T02:49:27.229Z,86.10
2019-01-10T02:51:56.583Z,86.00
2019-01-10T02:54:25.842Z,86.00
2019-01-10T02:56:55.308Z,86.00
2019-01-10T02:59:26.926Z,86.10
2019-01-10T03:01:58.516Z,86.20
2019-01-10T03:04:27.955Z,86.10
2019-01-10T03:06:57.348Z,86.10
2019-01-10T03:09:28.154Z,86.00
2019-01-10T03:11:57.537Z,86.00
2019-01-10T03:14:26.922Z,86.60
2019-01-10T03:16:56.538Z,85.90
2019-01-10T03:19:26.750Z,85.90
2019-01-10T03:21:56.353Z,86.00
2019-01-10T03:24:25.929Z,86.00
2019-01-10T03:26:55.319Z,85.90
2019-01-10T03:29:24.707Z,85.80
2019-01-10T03:31:54.155Z,85.80
2019-01-10T03:34:25.300Z,86.00
2019-01-10T03:36:54.645Z,85.70
2019-01-10T03:39:24.105Z,85.60
2019-01-10T03:41:55.552Z,85.70
2019-01-10T03:44:33.868Z,85.70
2019-01-10T03:46:56.153Z,85.50
2019-01-10T03:49:25.395Z,85.50
2019-01-10T03:51:54.774Z,85.50
2019-01-10T03:54:24.398Z,85.50
2019-01-10T03:56:53.965Z,85.50
2019-01-10T03:59:23.348Z,85.30
2019-01-10T04:01:52.734Z,85.10
2019-01-10T04:04:22.106Z,85.20
2019-01-10T04:06:51.559Z,85.40
2019-01-10T04:09:22.160Z,85.30
2019-01-10T04:11:52.211Z,85.10
2019-01-10T04:14:21.603Z,85.10
2019-01-10T04:16:50.903Z,85.40
2019-01-10T04:19:20.177Z,85.50
2019-01-10T04:21:49.461Z,85.50
2019-01-10T04:24:18.940Z,85.40
2019-01-10T04:26:48.235Z,85.30
2019-01-10T04:29:17.715Z,86.00
2019-01-10T04:31:49.392Z,85.20
2019-01-10T04:34:18.934Z,85.10
2019-01-10T04:36:50.673Z,85.20
2019-01-10T04:39:20.249Z,85.20
2019-01-10T04:41:49.729Z,84.80
2019-01-10T04:44:19.117Z,84.80
2019-01-10T04:46:48.643Z,84.90
2019-01-10T04:49:18.136Z,84.90
2019-01-10T04:51:47.505Z,85.00
2019-01-10T04:54:17.084Z,85.00
2019-01-10T04:56:48.089Z,85.00
2019-01-10T04:59:17.838Z,85.00
2019-01-10T05:01:47.153Z,84.70
2019-01-10T05:04:16.462Z,84.40
2019-01-10T05:06:45.951Z,84.10
2019-01-10T05:09:15.354Z,84.10
2019-01-10T05:11:44.723Z,84.50
2019-01-10T05:14:16.595Z,84.60
2019-01-10T05:16:45.407Z,84.60
2019-01-10T05:19:14.805Z,84.20
2019-01-10T05:21:44.212Z,84.00
2019-01-10T05:24:13.629Z,83.90
2019-01-10T05:26:42.888Z,84.00
2019-01-10T05:29:12.315Z,84.00
2019-01-10T05:31:41.777Z,84.00
2019-01-10T05:34:11.181Z,84.40
2019-01-10T05:36:40.913Z,84.60
2019-01-10T05:39:10.481Z,84.40
2019-01-10T05:41:39.892Z,84.50
2019-01-10T05:44:09.401Z,84.40
2019-01-10T05:50:18.762Z,84.70
2019-01-10T05:52:48.133Z,84.80
2019-01-10T05:55:19.565Z,84.80
2019-01-10T05:57:48.937Z,84.80
2019-01-10T06:00:21.121Z,84.90
2019-01-10T06:02:50.527Z,84.90
2019-01-10T06:05:19.934Z,84.90
2019-01-10T06:07:49.323Z,85.00
2019-01-10T06:10:24.881Z,85.20
2019-01-10T06:12:54.301Z,85.20
2019-01-10T06:15:23.786Z,85.10
2019-01-10T06:17:53.239Z,85.00
2019-01-10T06:20:23.815Z,84.80
2019-01-10T06:22:53.247Z,84.70
2019-01-10T06:25:22.817Z,84.70
2019-01-10T06:27:54.473Z,84.30
2019-01-10T06:30:24.910Z,84.10
2019-01-10T06:32:54.300Z,84.00
2019-01-10T06:35:23.764Z,84.30
2019-01-10T06:37:53.604Z,84.50
2019-01-10T06:40:23.537Z,84.70
2019-01-10T06:42:52.960Z,84.60
2019-01-10T06:45:22.310Z,84.80
2019-01-10T06:47:51.804Z,84.50
2019-01-10T06:50:21.205Z,84.60
2019-01-10T06:52:51.636Z,84.70
2019-01-10T06:55:21.184Z,84.70
2019-01-10T06:57:50.627Z,84.90
2019-01-10T07:00:25.057Z,85.10
2019-01-10T07:02:54.921Z,85.20
2019-01-10T07:05:24.387Z,85.30
2019-01-10T07:07:56.676Z,85.10
2019-01-10T07:10:29.329Z,85.00
2019-01-10T07:12:59.967Z,84.90
2019-01-10T07:15:29.336Z,84.80
2019-01-10T07:17:58.751Z,84.90
2019-01-10T07:20:28.132Z,84.80
2019-01-10T07:22:59.765Z,85.00
2019-01-10T07:25:29.184Z,84.80
2019-01-10T07:28:02.021Z,84.80
2019-01-10T07:30:36.166Z,84.80
2019-01-10T07:33:02.570Z,84.80
2019-01-10T07:35:32.791Z,84.80
2019-01-10T07:38:04.547Z,84.70
2019-01-10T07:40:39.223Z,84.60
2019-01-10T07:43:09.857Z,84.40
2019-01-10T07:45:41.080Z,84.60
2019-01-10T07:48:12.433Z,84.60
2019-01-10T07:50:44.083Z,84.90
2019-01-10T07:53:13.500Z,84.70
2019-01-10T07:55:48.764Z,84.60
2019-01-10T07:58:19.055Z,84.30
2019-01-10T08:00:48.425Z,84.10
2019-01-10T08:03:17.748Z,84.30
2019-01-10T08:05:47.248Z,84.20
2019-01-10T08:08:16.946Z,84.00
2019-01-10T08:10:46.560Z,83.70
2019-01-10T08:13:16.009Z,83.70
2019-01-10T08:15:45.317Z,84.00
2019-01-10T08:18:14.656Z,84.10
2019-01-10T08:20:43.965Z,84.40
2019-01-10T08:23:13.400Z,84.50
2019-01-10T08:25:42.645Z,84.40
2019-01-10T08:28:12.001Z,84.40
2019-01-10T08:30:42.529Z,84.30
2019-01-10T08:33:11.997Z,84.20
2019-01-10T08:35:41.454Z,84.10
2019-01-10T08:38:10.955Z,83.90
2019-01-10T08:40:40.298Z,84.00
2019-01-10T08:43:11.726Z,84.20
2019-01-10T08:45:40.490Z,84.10
2019-01-10T08:48:09.843Z,84.20
2019-01-10T08:50:39.217Z,84.00
2019-01-10T08:53:08.648Z,84.20
2019-01-10T08:55:38.174Z,84.40
2019-01-10T08:58:09.371Z,84.30
2019-01-10T09:00:38.452Z,84.10
2019-01-10T09:03:07.927Z,84.10
2019-01-10T09:05:37.399Z,84.20
2019-01-10T09:08:06.664Z,83.90
2019-01-10T09:10:36.264Z,83.80
2019-01-10T09:13:06.009Z,83.60
2019-01-10T09:15:35.299Z,83.70
2019-01-10T09:18:06.001Z,83.50
2019-01-10T09:20:36.449Z,83.80
2019-01-10T09:23:05.704Z,83.90
2019-01-10T09:25:35.073Z,83.20
2019-01-10T09:28:04.487Z,83.10
2019-01-10T09:30:33.853Z,83.40
2019-01-10T09:33:03.249Z,83.30
2019-01-10T09:35:33.747Z,83.00
2019-01-10T09:38:03.201Z,82.80
2019-01-10T09:40:32.449Z,82.60
2019-01-10T09:43:01.806Z,82.60
2019-01-10T09:45:31.185Z,82.50
2019-01-10T09:48:00.465Z,82.10
2019-01-10T09:50:29.749Z,82.00
2019-01-10T09:52:58.960Z,81.90
2019-01-10T09:55:28.280Z,82.20
2019-01-10T09:57:57.560Z,82.40
2019-01-10T10:00:31.342Z,82.40
2019-01-10T10:03:00.710Z,82.20
2019-01-10T10:05:30.068Z,82.00
2019-01-10T10:07:59.475Z,81.90
2019-01-10T10:10:29.725Z,82.70
2019-01-10T10:12:59.105Z,82.40
2019-01-10T10:15:28.606Z,82.60
2019-01-10T10:17:57.920Z,82.70
2019-01-10T10:20:27.301Z,82.60
2019-01-10T10:22:56.604Z,82.50
2019-01-10T10:25:26.253Z,82.50
2019-01-10T10:27:55.568Z,81.90
2019-01-10T10:30:25.428Z,81.10
2019-01-10T10:33:30.634Z,81.00
2019-01-10T10:36:00.001Z,81.30
2019-01-10T10:38:29.345Z,81.30
2019-01-10T10:40:58.628Z,80.80
2019-01-10T10:43:27.947Z,80.00
2019-01-10T10:46:01.757Z,80.30
2019-01-10T10:48:28.214Z,80.20
2019-01-10T10:50:57.552Z,80.10
2019-01-10T10:53:26.848Z,79.00
2019-01-10T10:55:56.215Z,79.00
2019-01-10T10:58:25.655Z,78.60
2019-01-10T11:00:54.967Z,78.20
2019-01-10T11:03:24.360Z,77.80
2019-01-10T11:05:56.023Z,78.00
2019-01-10T11:08:25.496Z,78.10
2019-01-10T11:10:54.770Z,78.80
2019-01-10T11:13:24.130Z,78.80
2019-01-10T11:15:53.325Z,78.40
2019-01-10T11:18:22.687Z,77.30
2019-01-10T11:20:52.149Z,77.10
2019-01-10T11:23:21.353Z,77.00
2019-01-10T11:25:50.717Z,77.50
2019-01-10T11:28:20.063Z,78.20
2019-01-10T11:30:49.539Z,78.50
2019-01-10T11:33:19.902Z,78.00
2019-01-10T11:35:49.453Z,77.50
2019-01-10T11:38:18.669Z,77.20
2019-01-10T11:40:47.885Z,76.50
2019-01-10T11:43:17.267Z,76.90
2019-01-10T11:45:46.613Z,76.90
2019-01-10T11:48:15.945Z,76.90
2019-01-10T11:50:45.233Z,77.00
2019-01-10T11:53:14.514Z,76.30
2019-01-10T11:55:43.933Z,75.80
2019-01-10T11:58:13.184Z,75.20
2019-01-10T12:00:42.477Z,75.10
2019-01-10T12:03:12.946Z,74.90
2019-01-10T12:05:48.222Z,75.00
2019-01-10T12:08:17.536Z,75.20
2019-01-10T12:10:48.901Z,75.30
2019-01-10T12:13:18.355Z,75.00
2019-01-10T12:15:48.850Z,75.00
2019-01-10T12:18:18.313Z,74.90
2019-01-10T12:20:47.675Z,74.30
2019-01-10T12:23:17.102Z,74.50
2019-01-10T12:25:48.554Z,74.40
2019-01-10T12:28:17.897Z,74.10
2019-01-10T12:30:47.213Z,74.50
2019-01-10T12:33:22.684Z,74.50
2019-01-10T12:35:52.035Z,74.70
2019-01-10T12:38:22.353Z,74.80
2019-01-10T12:40:52.604Z,74.60
2019-01-10T12:43:22.036Z,74.30
2019-01-10T12:45:52.361Z,74.10
2019-01-10T12:48:21.801Z,74.30
2019-01-10T12:50:51.048Z,74.40
2019-01-10T12:53:20.320Z,74.20
2019-01-10T12:55:51.310Z,74.00
2019-01-10T12:58:22.736Z,74.50
2019-01-10T13:00:52.024Z,74.20
2019-01-10T13:03:21.320Z,74.30
2019-01-10T13:05:50.827Z,73.90
2019-01-10T13:08:21.168Z,73.80
2019-01-10T13:10:50.610Z,73.60
2019-01-10T13:13:20.131Z,73.40
2019-01-10T13:15:49.703Z,72.90
2019-01-10T13:18:19.149Z,72.90
2019-01-10T13:20:49.743Z,73.00
2019-01-10T13:23:19.204Z,73.10
2019-01-10T13:25:48.770Z,73.40
2019-01-10T13:28:19.212Z,73.30
2019-01-10T13:30:48.517Z,73.40
2019-01-10T13:33:23.448Z,73.80
2019-01-10T13:35:53.836Z,73.80
2019-01-10T13:38:23.132Z,73.60
2019-01-10T13:40:53.589Z,73.60
2019-01-10T13:43:22.834Z,73.80
2019-01-10T13:45:52.279Z,74.00
2019-01-10T13:48:21.644Z,73.80
2019-01-10T13:50:50.936Z,73.90
2019-01-10T13:53:20.124Z,74.30
2019-01-10T13:55:49.472Z,74.30
2019-01-10T13:58:18.773Z,74.10
2019-01-10T14:00:47.942Z,74.00
2019-01-10T14:03:17.320Z,74.30
2019-01-10T14:05:46.620Z,74.20
2019-01-10T14:08:15.921Z,74.20
2019-01-10T14:10:45.200Z,74.30
2019-01-10T14:13:15.526Z,74.30
2019-01-10T14:15:44.912Z,74.10
2019-01-10T14:18:14.233Z,74.40
2019-01-10T14:20:43.732Z,74.20
2019-01-10T14:23:13.463Z,74.20
2019-01-10T14:25:43.013Z,73.80
2019-01-10T14:28:12.428Z,73.40
2019-01-10T14:30:42.080Z,73.50
2019-01-10T14:33:13.747Z,73.40
2019-01-10T14:35:43.502Z,73.10
2019-01-10T14:38:13.598Z,73.10
2019-01-10T14:40:42.882Z,73.30
2019-01-10T14:43:12.177Z,73.30
2019-01-10T14:45:42.736Z,73.90
2019-01-10T14:48:12.160Z,73.00
2019-01-10T14:50:41.549Z,73.10
2019-01-10T14:53:11.026Z,73.30
2019-01-10T14:55:40.575Z,73.20
2019-01-10T14:58:09.992Z,73.10
2019-01-10T15:00:41.629Z,72.90
2019-01-10T15:03:11.030Z,72.80
2019-01-10T15:05:49.619Z,72.70
2019-01-10T15:08:19.261Z,72.80
2019-01-10T15:10:48.552Z,73.00
2019-01-10T15:13:18.993Z,73.00
2019-01-10T15:15:48.290Z,72.80
2019-01-10T15:18:17.698Z,72.80
2019-01-10T15:20:49.482Z,72.80
2019-01-10T15:23:18.764Z,72.80
2019-01-10T15:25:49.356Z,72.90
2019-01-10T15:28:18.565Z,73.00
2019-01-10T15:34:15.200Z,72.80
2019-01-10T15:36:44.529Z,72.70
2019-01-10T15:39:13.904Z,72.50
2019-01-10T15:41:43.434Z,72.30
2019-01-10T15:44:12.700Z,72.30
2019-01-10T15:46:46.247Z,72.10
2019-01-10T15:49:28.468Z,71.80
2019-01-10T15:51:57.834Z,72.00
2019-01-10T15:54:27.142Z,72.20
2019-01-10T15:57:00.790Z,72.10
2019-01-10T15:59:28.516Z,72.30
2019-01-10T16:01:59.007Z,72.10
2019-01-10T16:04:28.326Z,71.90
2019-01-10T16:06:57.859Z,71.90
2019-01-10T16:09:27.280Z,72.00
2019-01-10T16:11:56.714Z,71.70
2019-01-10T16:14:26.167Z,71.40
2019-01-10T16:16:55.598Z,71.30
2019-01-10T16:19:24.982Z,71.60
2019-01-10T16:21:54.410Z,71.70
2019-01-10T16:24:23.755Z,71.80
2019-01-10T16:26:54.364Z,71.40
2019-01-10T16:29:25.798Z,71.00
2019-01-10T16:31:55.227Z,70.90
2019-01-10T16:34:24.606Z,70.90
2019-01-10T16:36:54.396Z,71.10
2019-01-10T16:39:24.215Z,70.80
2019-01-10T16:41:55.126Z,70.90
2019-01-10T16:44:24.365Z,70.60
2019-01-10T16:46:53.709Z,70.70
2019-01-10T16:49:26.350Z,70.50
2019-01-10T16:51:55.746Z,71.30
2019-01-10T16:54:24.994Z,70.50
2019-01-10T16:56:54.331Z,70.70
2019-01-10T16:59:24.794Z,70.70
2019-01-10T17:01:54.390Z,70.50
2019-01-10T17:04:30.771Z,70.60
2019-01-10T17:07:00.126Z,70.40
2019-01-10T17:09:36.662Z,70.20
2019-01-10T17:12:06.128Z,70.00
2019-01-10T17:14:36.555Z,69.80
2019-01-10T17:17:05.935Z,69.80
2019-01-10T17:19:35.706Z,69.90
2019-01-10T17:22:06.150Z,69.70
2019-01-10T17:24:35.474Z,69.70
2019-01-10T17:27:05.320Z,69.70
2019-01-10T17:29:34.703Z,69.90
2019-01-10T17:32:06.786Z,69.80
2019-01-10T17:34:36.268Z,69.80
2019-01-10T17:37:05.718Z,69.40
2019-01-10T17:39:35.304Z,69.20
2019-01-10T17:42:04.652Z,69.20
2019-01-10T17:44:34.163Z,69.30
2019-01-10T17:47:03.810Z,69.20
2019-01-10T17:49:34.328Z,69.00
2019-01-10T17:52:03.710Z,69.10
2019-01-10T17:54:33.120Z,68.90
2019-01-10T17:57:02.473Z,69.10
2019-01-10T17:59:31.854Z,69.20
2019-01-10T18:02:01.454Z,69.20
2019-01-10T18:04:30.702Z,68.90
2019-01-10T18:07:00.068Z,68.80
2019-01-10T18:09:29.461Z,68.80
2019-01-10T18:11:58.862Z,68.80
2019-01-10T18:14:28.248Z,68.80
2019-01-10T18:16:58.576Z,68.80
2019-01-10T18:19:27.878Z,68.70
2019-01-10T18:21:59.430Z,68.70
2019-01-10T18:24:28.784Z,68.70
2019-01-10T18:26:58.184Z,68.60
2019-01-10T18:29:32.874Z,68.60
2019-01-10T18:31:58.650Z,68.40
2019-01-10T18:34:28.057Z,68.50
2019-01-10T18:37:04.396Z,68.70
2019-01-10T18:39:33.684Z,68.80
2019-01-10T18:42:03.060Z,68.80
2019-01-10T18:44:32.522Z,68.80
2019-01-10T18:47:01.864Z,68.80
2019-01-10T18:49:31.188Z,68.70
2019-01-10T18:52:00.539Z,68.80
2019-01-10T18:54:30.068Z,68.80
2019-01-10T18:57:01.597Z,68.80
2019-01-10T18:59:31.026Z,68.70
2019-01-10T19:02:00.410Z,68.40
2019-01-10T19:04:29.990Z,68.40
2019-01-10T19:06:59.423Z,68.40
2019-01-10T19:09:28.818Z,68.50
2019-01-10T19:11:59.889Z,68.50
2019-01-10T19:14:29.211Z,68.40
2019-01-10T19:17:32.378Z,68.40
2019-01-10T19:20:21.237Z,68.30
2019-01-10T19:22:51.721Z,68.50
2019-01-10T19:25:20.983Z,68.40
2019-01-10T19:27:52.830Z,68.50
2019-01-10T19:30:24.469Z,68.50
2019-01-10T19:33:01.706Z,68.50
2019-01-10T19:35:31.312Z,68.40
2019-01-10T19:38:01.726Z,68.20
2019-01-10T19:40:32.620Z,68.30
2019-01-10T19:43:02.378Z,69.10
2019-01-10T19:45:49.742Z,68.40
2019-01-10T19:48:19.210Z,68.40
2019-01-10T19:50:57.078Z,68.20
2019-01-10T19:53:26.508Z,68.10
2019-01-10T19:56:02.870Z,68.20
2019-01-10T19:58:32.837Z,68.10
2019-01-10T20:01:02.877Z,68.10
2019-01-10T20:03:33.435Z,68.10
2019-01-10T20:06:03.181Z,68.10
2019-01-10T20:08:32.970Z,68.30
2019-01-10T20:11:03.175Z,68.00
2019-01-10T20:13:34.844Z,68.10
2019-01-10T20:16:56.796Z,68.00
2019-01-10T20:19:28.071Z,67.90
2019-01-10T20:22:03.171Z,68.20
2019-01-10T20:25:02.522Z,68.20
2019-01-10T20:27:32.064Z,68.30
2019-01-10T20:30:01.594Z,68.20
2019-01-10T20:32:31.994Z,68.20
2019-01-10T20:35:01.723Z,68.40
2019-01-10T20:37:31.938Z,68.50
2019-01-10T20:40:02.349Z,68.30
2019-01-10T20:42:32.378Z,68.20
2019-01-10T20:45:01.802Z,68.20
2019-01-10T20:47:32.010Z,68.20
2019-01-10T20:50:01.329Z,68.00
2019-01-10T20:52:30.717Z,67.90
2019-01-10T20:55:03.795Z,68.00
2019-01-10T20:57:33.333Z,67.90
2019-01-10T21:00:02.819Z,67.90
2019-01-10T21:02:32.297Z,68.00
2019-01-10T21:05:02.808Z,68.00
2019-01-10T21:07:32.261Z,67.90
2019-01-10T21:10:01.999Z,67.80
2019-01-10T21:12:32.089Z,67.80
2019-01-10T21:15:01.782Z,67.90
2019-01-10T21:17:32.021Z,67.80
2019-01-10T21:20:01.702Z,68.40
2019-01-10T21:22:32.818Z,67.40
2019-01-10T21:25:02.194Z,67.30
2019-01-10T21:27:32.110Z,67.30
2019-01-10T21:30:21.922Z,67.30
2019-01-10T21:33:01.615Z,67.30
2019-01-10T21:35:31.006Z,67.20
2019-01-10T21:38:00.414Z,67.20
2019-01-10T21:40:31.399Z,67.20
2019-01-10T21:43:00.821Z,67.20
2019-01-10T21:45:30.533Z,67.20
2019-01-10T21:47:59.976Z,67.20
2019-01-10T21:50:29.451Z,67.30
2019-01-10T21:52:59.105Z,67.30
2019-01-10T21:55:30.843Z,67.30
2019-01-10T21:58:04.632Z,67.50
2019-01-10T22:00:34.083Z,67.40
2019-01-10T22:03:03.791Z,67.30
2019-01-10T22:05:40.257Z,67.30
2019-01-10T22:08:09.748Z,67.30
2019-01-10T22:10:43.888Z,67.30
2019-01-10T22:13:13.314Z,67.30
2019-01-10T22:15:43.202Z,67.30
2019-01-10T22:19:06.001Z,67.20
2019-01-10T22:21:37.005Z,67.20
2019-01-10T22:24:15.443Z,67.20
2019-01-10T22:26:51.178Z,67.30
2019-01-10T22:29:20.962Z,67.30
2019-01-10T22:31:52.003Z,67.20
2019-01-10T22:34:22.899Z,67.30
2019-01-10T22:37:10.828Z,67.30
2019-01-10T22:39:41.461Z,67.30
2019-01-10T22:42:11.243Z,67.40
2019-01-10T22:44:40.877Z,67.10
2019-01-10T22:47:10.273Z,67.10
2019-01-10T22:49:39.541Z,66.90
2019-01-10T22:52:08.895Z,66.80
2019-01-10T22:54:38.437Z,66.80
2019-01-10T22:57:07.919Z,66.50
2019-01-10T22:59:37.288Z,66.50
2019-01-10T23:02:07.084Z,66.50
2019-01-10T23:04:38.124Z,66.70
2019-01-10T23:07:20.121Z,66.70
2019-01-10T23:09:49.671Z,66.70
2019-01-10T23:12:19.121Z,66.60
2019-01-10T23:14:48.517Z,66.60
2019-01-10T23:17:17.913Z,66.70
2019-01-10T23:19:50.437Z,66.70
2019-01-10T23:22:19.961Z,66.70
2019-01-10T23:24:58.641Z,66.70
2019-01-10T23:27:29.105Z,66.60
2019-01-10T23:29:58.356Z,66.50
2019-01-10T23:32:27.689Z,66.40
2019-01-10T23:34:57.555Z,66.50
2019-01-10T23:37:27.806Z,66.80
2019-01-10T23:39:57.613Z,66.80
2019-01-10T23:42:26.930Z,67.00
2019-01-10T23:44:56.330Z,66.90
2019-01-10T23:47:25.773Z,67.00
2019-01-10T23:49:55.110Z,67.00
2019-01-10T23:52:24.505Z,67.00
2019-01-10T23:54:53.966Z,67.00
2019-01-10T23:57:23.541Z,67.00
2019-01-10T23:59:53.087Z,66.90
